Ana Sayfa
METAR-TAF:

METAR-TAF

Havaalanları :

Córdoba, Arjantin

Enlem: 31-19S, Boylam: 064-13W, yükseklik: 484 m

Güncel hava durumu gözlemi

Rapor saat 05:00 UTC de 30 dakika önce yapıldı.
Rüzgar batı/kuzeybatıdan 4 kt
Sıcaklık 18°C
Nem 73%
Basınç 1015 hPa
Görüş mesafesi 10 km veya daha fazla
1500 m altında bulut yok ve kümülonimbus yok

METAR: SACO 200500Z 30004KT CAVOK 18/13 Q1015

Saat: 02:30 (05:30 UTC)

Tahmin

Rapor saat 23:00 UTC de 6 saat ve 30 dakika önce yapıldı.
Ayın 20'si saat 00 UTC'den ayın 20'si saat 24 UTC'ye kadar geçerli Tahmin
Rüzgar kuzey/kuzeybatıdan 5 kt
Görüş mesafesi 10 km veya daha fazla
1500 m altında bulut yok ve kümülonimbus yok
Dönüşüyor
ayın 20'si saat 12 UTC'den ayın 20'si saat 15 UTC'ye kadar
Rüzgar kuzeydoğudan 10 kt
Görüş mesafesi 10 km veya daha fazla
4000 ft yükseklikte parçalı bulutlu, Yükselen kümülüs.

TAF: SACO 192300Z 2000/2024 34005KT CAVOK TX34/2018Z TN17/2010Z BECMG 2012/2015 05010KT 9999 SCT040TCU

4.000'den fazla havaalanı için hava durumu gözlemleri ve tahminleri (METAR ve TAF raporları).

Kullanılabilir istasyonlar harita üzerinde sarı ve kırmızı noktalarla gösterilir.

İstasyonun adını görmek için fareyi noktanın üzerinde gezdirin.

Sonrasında hava gözlem ve tahminlerini görmek için tıklayın.

Haritayı değiştirmek için: yaklaştırmak için siyah artı işaretli yeşil düğmeye ve uzaklaştırmak için de eksi işaretli düğmeye hızla tıklayın; bitişik haritalar için yeşil okları kullanın.


METAR-TAF: